Aviation Digital Data Service (ADDS)

Output produced by METARs form (1131 UTC 25 June 2019)
found at http://www.aviationweather.gov/metar/data/
 
Forecast for: UTSS (SAMARKAND , UZ)
Text: TAF UTSS 251100Z 2512/2612 12010G20KT 9999 NSC TX35/2610Z
Forecast period: 1200 UTC 25 June 2019 to 1200 UTC 26 June 2019
Forecast type: FROM: standard forecast or significant change
Winds: from the ESE (120 degrees) at 12 MPH (10 knots; 5.1 m/s)
gusting to 23 MPH (20 knots; 10.3 m/s)
Visibility: 6 or more miles 10+ km)
Ceiling: unknown
Clouds: missing
Weather: no significant weather forecast for this period
Text: TEMPO 2512/2515 30010KT
Forecast period: 1200 to 1500 UTC 25 June 2019
Forecast type: TEMPORARY: The following changes expected for less than half the time period
Winds: from the WNW (300 degrees) at 12 MPH (10 knots; 5.1 m/s)
Visibility: missing
Ceiling: unknown
Clouds: missing
Weather: no significant weather forecast for this period